sensor_id;sensor_type;location;lat;lon;timestamp;P1;durP1;ratioP1;P2;durP2;ratioP2
17595;SDS011;8916;47.086;15.920;2023-03-05T00:00:22;41.88;;;20.95;;
17595;SDS011;8916;47.086;15.920;2023-03-05T00:02:51;53.58;;;25.42;;
17595;SDS011;8916;47.086;15.920;2023-03-05T00:05:22;47.35;;;23.23;;
17595;SDS011;8916;47.086;15.920;2023-03-05T00:07:51;43.45;;;21.65;;
17595;SDS011;8916;47.086;15.920;2023-03-05T00:10:20;44.17;;;21.98;;
17595;SDS011;8916;47.086;15.920;2023-03-05T00:12:49;46.20;;;21.77;;
17595;SDS011;8916;47.086;15.920;2023-03-05T00:15:18;41.85;;;20.30;;
17595;SDS011;8916;47.086;15.920;2023-03-05T00:17:47;51.70;;;21.90;;
17595;SDS011;8916;47.086;15.920;2023-03-05T00:20:17;45.10;;;21.63;;
17595;SDS011;8916;47.086;15.920;2023-03-05T00:22:47;42.10;;;20.45;;
17595;SDS011;8916;47.086;15.920;2023-03-05T00:25:16;51.85;;;23.88;;
17595;SDS011;8916;47.086;15.920;2023-03-05T00:27:46;53.10;;;24.42;;
17595;SDS011;8916;47.086;15.920;2023-03-05T00:30:15;60.20;;;26.83;;
17595;SDS011;8916;47.086;15.920;2023-03-05T00:32:44;50.00;;;24.10;;
17595;SDS011;8916;47.086;15.920;2023-03-05T00:35:13;50.53;;;24.63;;
17595;SDS011;8916;47.086;15.920;2023-03-05T00:37:42;55.83;;;25.40;;
17595;SDS011;8916;47.086;15.920;2023-03-05T00:40:13;51.90;;;24.30;;
17595;SDS011;8916;47.086;15.920;2023-03-05T00:42:42;46.72;;;22.83;;
17595;SDS011;8916;47.086;15.920;2023-03-05T00:45:11;50.80;;;22.67;;
17595;SDS011;8916;47.086;15.920;2023-03-05T00:47:40;50.05;;;22.02;;
17595;SDS011;8916;47.086;15.920;2023-03-05T00:50:10;54.25;;;24.90;;
17595;SDS011;8916;47.086;15.920;2023-03-05T00:52:39;48.80;;;23.45;;
17595;SDS011;8916;47.086;15.920;2023-03-05T00:55:08;54.45;;;23.42;;
17595;SDS011;8916;47.086;15.920;2023-03-05T00:57:39;49.53;;;23.83;;
17595;SDS011;8916;47.086;15.920;2023-03-05T01:00:09;43.50;;;21.10;;
17595;SDS011;8916;47.086;15.920;2023-03-05T01:02:39;44.78;;;21.75;;
17595;SDS011;8916;47.086;15.920;2023-03-05T01:05:09;45.58;;;21.33;;
17595;SDS011;8916;47.086;15.920;2023-03-05T01:07:40;50.30;;;22.45;;
17595;SDS011;8916;47.086;15.920;2023-03-05T01:10:10;47.10;;;21.92;;
17595;SDS011;8916;47.086;15.920;2023-03-05T01:12:42;51.53;;;23.15;;
17595;SDS011;8916;47.086;15.920;2023-03-05T01:15:11;48.92;;;22.50;;
17595;SDS011;8916;47.086;15.920;2023-03-05T01:17:40;55.67;;;22.30;;
17595;SDS011;8916;47.086;15.920;2023-03-05T01:20:11;54.80;;;23.25;;
17595;SDS011;8916;47.086;15.920;2023-03-05T01:22:41;53.10;;;23.65;;
17595;SDS011;8916;47.086;15.920;2023-03-05T01:25:11;50.85;;;23.65;;
17595;SDS011;8916;47.086;15.920;2023-03-05T01:27:43;52.33;;;24.60;;
17595;SDS011;8916;47.086;15.920;2023-03-05T01:30:12;53.15;;;23.90;;
17595;SDS011;8916;47.086;15.920;2023-03-05T01:32:42;50.65;;;24.80;;
17595;SDS011;8916;47.086;15.920;2023-03-05T01:35:14;49.53;;;23.33;;
17595;SDS011;8916;47.086;15.920;2023-03-05T01:37:47;52.38;;;23.88;;
17595;SDS011;8916;47.086;15.920;2023-03-05T01:40:17;54.13;;;23.25;;
17595;SDS011;8916;47.086;15.920;2023-03-05T01:42:54;55.85;;;25.02;;
17595;SDS011;8916;47.086;15.920;2023-03-05T01:45:29;55.75;;;24.65;;
17595;SDS011;8916;47.086;15.920;2023-03-05T01:47:59;57.90;;;25.20;;
17595;SDS011;8916;47.086;15.920;2023-03-05T01:50:28;53.00;;;24.70;;
17595;SDS011;8916;47.086;15.920;2023-03-05T01:52:58;56.67;;;25.23;;
17595;SDS011;8916;47.086;15.920;2023-03-05T01:55:33;55.50;;;25.60;;
17595;SDS011;8916;47.086;15.920;2023-03-05T01:58:07;54.50;;;24.40;;
17595;SDS011;8916;47.086;15.920;2023-03-05T02:00:42;58.30;;;24.90;;
17595;SDS011;8916;47.086;15.920;2023-03-05T02:03:14;64.78;;;27.15;;
17595;SDS011;8916;47.086;15.920;2023-03-05T02:05:43;56.60;;;25.40;;
17595;SDS011;8916;47.086;15.920;2023-03-05T02:08:13;64.13;;;27.13;;
17595;SDS011;8916;47.086;15.920;2023-03-05T02:10:45;64.93;;;26.85;;
17595;SDS011;8916;47.086;15.920;2023-03-05T02:13:18;62.10;;;25.95;;
17595;SDS011;8916;47.086;15.920;2023-03-05T02:15:50;55.92;;;26.05;;
17595;SDS011;8916;47.086;15.920;2023-03-05T02:18:22;53.50;;;24.15;;
17595;SDS011;8916;47.086;15.920;2023-03-05T02:20:52;63.92;;;26.48;;
17595;SDS011;8916;47.086;15.920;2023-03-05T02:23:28;58.88;;;25.98;;
17595;SDS011;8916;47.086;15.920;2023-03-05T02:26:03;56.63;;;26.60;;
17595;SDS011;8916;47.086;15.920;2023-03-05T02:28:37;61.60;;;26.08;;
17595;SDS011;8916;47.086;15.920;2023-03-05T02:31:10;56.22;;;24.70;;
17595;SDS011;8916;47.086;15.920;2023-03-05T02:33:43;59.95;;;25.27;;
17595;SDS011;8916;47.086;15.920;2023-03-05T02:36:15;57.25;;;25.75;;
17595;SDS011;8916;47.086;15.920;2023-03-05T02:38:46;58.50;;;24.42;;
17595;SDS011;8916;47.086;15.920;2023-03-05T02:41:16;51.25;;;23.35;;
17595;SDS011;8916;47.086;15.920;2023-03-05T02:43:45;59.78;;;25.50;;
17595;SDS011;8916;47.086;15.920;2023-03-05T02:46:14;58.35;;;24.38;;
17595;SDS011;8916;47.086;15.920;2023-03-05T02:48:44;51.22;;;24.55;;
17595;SDS011;8916;47.086;15.920;2023-03-05T02:51:13;54.20;;;23.23;;
17595;SDS011;8916;47.086;15.920;2023-03-05T02:53:45;53.45;;;24.45;;
17595;SDS011;8916;47.086;15.920;2023-03-05T02:56:15;54.00;;;24.50;;
17595;SDS011;8916;47.086;15.920;2023-03-05T02:58:45;53.47;;;24.85;;
17595;SDS011;8916;47.086;15.920;2023-03-05T03:01:14;55.88;;;26.45;;
17595;SDS011;8916;47.086;15.920;2023-03-05T03:03:43;62.55;;;27.17;;
17595;SDS011;8916;47.086;15.920;2023-03-05T03:06:12;66.63;;;27.40;;
17595;SDS011;8916;47.086;15.920;2023-03-05T03:08:42;61.05;;;27.38;;
17595;SDS011;8916;47.086;15.920;2023-03-05T03:11:11;56.67;;;25.77;;
17595;SDS011;8916;47.086;15.920;2023-03-05T03:13:41;63.10;;;26.77;;
17595;SDS011;8916;47.086;15.920;2023-03-05T03:16:12;60.90;;;26.02;;
17595;SDS011;8916;47.086;15.920;2023-03-05T03:18:42;64.57;;;28.15;;
17595;SDS011;8916;47.086;15.920;2023-03-05T03:21:17;56.45;;;24.67;;
17595;SDS011;8916;47.086;15.920;2023-03-05T03:23:49;57.63;;;25.73;;
17595;SDS011;8916;47.086;15.920;2023-03-05T03:26:18;52.88;;;23.05;;
17595;SDS011;8916;47.086;15.920;2023-03-05T03:28:47;49.45;;;22.05;;
17595;SDS011;8916;47.086;15.920;2023-03-05T03:31:17;60.97;;;25.42;;
17595;SDS011;8916;47.086;15.920;2023-03-05T03:33:46;51.47;;;22.70;;
17595;SDS011;8916;47.086;15.920;2023-03-05T03:36:15;49.60;;;22.92;;
17595;SDS011;8916;47.086;15.920;2023-03-05T03:38:44;54.75;;;23.73;;
17595;SDS011;8916;47.086;15.920;2023-03-05T03:41:14;48.50;;;22.23;;
17595;SDS011;8916;47.086;15.920;2023-03-05T03:43:45;54.40;;;23.77;;
17595;SDS011;8916;47.086;15.920;2023-03-05T03:46:14;55.00;;;24.67;;
17595;SDS011;8916;47.086;15.920;2023-03-05T03:48:43;55.90;;;23.65;;
17595;SDS011;8916;47.086;15.920;2023-03-05T03:51:12;56.17;;;24.27;;
17595;SDS011;8916;47.086;15.920;2023-03-05T03:53:41;65.43;;;26.65;;
17595;SDS011;8916;47.086;15.920;2023-03-05T03:56:10;61.88;;;26.42;;
17595;SDS011;8916;47.086;15.920;2023-03-05T03:58:41;55.35;;;24.15;;
17595;SDS011;8916;47.086;15.920;2023-03-05T04:01:10;56.95;;;25.73;;
17595;SDS011;8916;47.086;15.920;2023-03-05T04:03:39;59.30;;;26.70;;
17595;SDS011;8916;47.086;15.920;2023-03-05T04:06:08;54.92;;;25.95;;
17595;SDS011;8916;47.086;15.920;2023-03-05T04:08:37;62.75;;;26.60;;
17595;SDS011;8916;47.086;15.920;2023-03-05T04:11:08;63.40;;;24.65;;
17595;SDS011;8916;47.086;15.920;2023-03-05T04:13:37;51.78;;;24.58;;
17595;SDS011;8916;47.086;15.920;2023-03-05T04:16:07;59.88;;;25.17;;
17595;SDS011;8916;47.086;15.920;2023-03-05T04:18:37;56.95;;;24.33;;
17595;SDS011;8916;47.086;15.920;2023-03-05T04:21:06;59.95;;;26.33;;
17595;SDS011;8916;47.086;15.920;2023-03-05T04:23:35;58.90;;;26.05;;
17595;SDS011;8916;47.086;15.920;2023-03-05T04:26:06;56.60;;;26.17;;
17595;SDS011;8916;47.086;15.920;2023-03-05T04:28:35;57.90;;;26.25;;
17595;SDS011;8916;47.086;15.920;2023-03-05T04:31:04;54.13;;;25.58;;
17595;SDS011;8916;47.086;15.920;2023-03-05T04:33:35;56.20;;;25.38;;
17595;SDS011;8916;47.086;15.920;2023-03-05T04:36:05;53.25;;;23.33;;
17595;SDS011;8916;47.086;15.920;2023-03-05T04:38:35;57.38;;;24.67;;
17595;SDS011;8916;47.086;15.920;2023-03-05T04:41:04;58.83;;;25.50;;
17595;SDS011;8916;47.086;15.920;2023-03-05T04:43:33;54.45;;;24.02;;
17595;SDS011;8916;47.086;15.920;2023-03-05T04:46:04;59.22;;;25.83;;
17595;SDS011;8916;47.086;15.920;2023-03-05T04:48:35;51.95;;;24.48;;
17595;SDS011;8916;47.086;15.920;2023-03-05T04:51:04;60.92;;;25.08;;
17595;SDS011;8916;47.086;15.920;2023-03-05T04:53:33;56.63;;;25.60;;
17595;SDS011;8916;47.086;15.920;2023-03-05T04:56:03;66.82;;;28.45;;
17595;SDS011;8916;47.086;15.920;2023-03-05T04:58:32;58.17;;;26.63;;
17595;SDS011;8916;47.086;15.920;2023-03-05T05:01:02;64.72;;;26.27;;
17595;SDS011;8916;47.086;15.920;2023-03-05T05:03:33;59.13;;;27.02;;
17595;SDS011;8916;47.086;15.920;2023-03-05T05:06:03;55.33;;;24.15;;
17595;SDS011;8916;47.086;15.920;2023-03-05T05:08:33;57.47;;;25.38;;
17595;SDS011;8916;47.086;15.920;2023-03-05T05:11:04;63.80;;;25.92;;
17595;SDS011;8916;47.086;15.920;2023-03-05T05:13:35;58.40;;;25.08;;
17595;SDS011;8916;47.086;15.920;2023-03-05T05:16:04;55.38;;;25.80;;
17595;SDS011;8916;47.086;15.920;2023-03-05T05:18:36;59.47;;;24.92;;
17595;SDS011;8916;47.086;15.920;2023-03-05T05:21:06;62.17;;;27.27;;
17595;SDS011;8916;47.086;15.920;2023-03-05T05:23:36;58.05;;;25.83;;
17595;SDS011;8916;47.086;15.920;2023-03-05T05:26:06;54.25;;;23.52;;
17595;SDS011;8916;47.086;15.920;2023-03-05T05:28:40;55.75;;;24.45;;
17595;SDS011;8916;47.086;15.920;2023-03-05T05:31:11;59.40;;;26.02;;
17595;SDS011;8916;47.086;15.920;2023-03-05T05:33:44;48.45;;;22.75;;
17595;SDS011;8916;47.086;15.920;2023-03-05T05:36:16;54.03;;;24.92;;
17595;SDS011;8916;47.086;15.920;2023-03-05T05:38:48;53.70;;;23.85;;
17595;SDS011;8916;47.086;15.920;2023-03-05T05:41:18;65.47;;;27.48;;
17595;SDS011;8916;47.086;15.920;2023-03-05T05:43:47;59.58;;;26.73;;
17595;SDS011;8916;47.086;15.920;2023-03-05T05:46:17;59.45;;;27.52;;
17595;SDS011;8916;47.086;15.920;2023-03-05T05:48:49;60.83;;;26.35;;
17595;SDS011;8916;47.086;15.920;2023-03-05T05:51:19;63.47;;;27.10;;
17595;SDS011;8916;47.086;15.920;2023-03-05T05:53:50;58.90;;;28.35;;
17595;SDS011;8916;47.086;15.920;2023-03-05T05:56:20;59.85;;;25.77;;
17595;SDS011;8916;47.086;15.920;2023-03-05T05:58:49;58.03;;;25.92;;
17595;SDS011;8916;47.086;15.920;2023-03-05T06:01:22;55.55;;;23.42;;
17595;SDS011;8916;47.086;15.920;2023-03-05T06:03:55;58.75;;;25.15;;
17595;SDS011;8916;47.086;15.920;2023-03-05T06:06:26;60.78;;;26.30;;
17595;SDS011;8916;47.086;15.920;2023-03-05T06:08:55;54.90;;;22.90;;
17595;SDS011;8916;47.086;15.920;2023-03-05T06:11:25;55.88;;;25.42;;
17595;SDS011;8916;47.086;15.920;2023-03-05T06:13:54;48.78;;;23.55;;
17595;SDS011;8916;47.086;15.920;2023-03-05T06:16:23;51.13;;;24.27;;
17595;SDS011;8916;47.086;15.920;2023-03-05T06:18:53;59.63;;;25.83;;
17595;SDS011;8916;47.086;15.920;2023-03-05T06:21:23;59.83;;;27.77;;
17595;SDS011;8916;47.086;15.920;2023-03-05T06:23:52;62.22;;;27.90;;
17595;SDS011;8916;47.086;15.920;2023-03-05T06:26:21;64.38;;;28.80;;
17595;SDS011;8916;47.086;15.920;2023-03-05T06:28:51;59.75;;;26.92;;
17595;SDS011;8916;47.086;15.920;2023-03-05T06:31:21;56.65;;;25.27;;
17595;SDS011;8916;47.086;15.920;2023-03-05T06:33:56;53.95;;;24.10;;
17595;SDS011;8916;47.086;15.920;2023-03-05T06:36:29;56.20;;;25.33;;
17595;SDS011;8916;47.086;15.920;2023-03-05T06:38:58;58.33;;;25.95;;
17595;SDS011;8916;47.086;15.920;2023-03-05T06:41:29;55.20;;;25.38;;
17595;SDS011;8916;47.086;15.920;2023-03-05T06:44:00;56.10;;;25.85;;
17595;SDS011;8916;47.086;15.920;2023-03-05T06:46:30;59.97;;;25.73;;
17595;SDS011;8916;47.086;15.920;2023-03-05T06:49:01;60.50;;;26.05;;
17595;SDS011;8916;47.086;15.920;2023-03-05T06:51:35;55.42;;;23.45;;
17595;SDS011;8916;47.086;15.920;2023-03-05T06:54:07;52.65;;;23.00;;
17595;SDS011;8916;47.086;15.920;2023-03-05T06:56:38;52.22;;;24.98;;
17595;SDS011;8916;47.086;15.920;2023-03-05T06:59:10;58.75;;;24.88;;
17595;SDS011;8916;47.086;15.920;2023-03-05T07:01:40;51.80;;;24.48;;
17595;SDS011;8916;47.086;15.920;2023-03-05T07:04:13;55.15;;;25.55;;
17595;SDS011;8916;47.086;15.920;2023-03-05T07:06:44;55.88;;;26.38;;
17595;SDS011;8916;47.086;15.920;2023-03-05T07:09:14;53.75;;;25.77;;
17595;SDS011;8916;47.086;15.920;2023-03-05T07:11:43;60.15;;;25.05;;
17595;SDS011;8916;47.086;15.920;2023-03-05T07:14:12;56.80;;;26.67;;
17595;SDS011;8916;47.086;15.920;2023-03-05T07:16:42;64.18;;;28.33;;
17595;SDS011;8916;47.086;15.920;2023-03-05T07:19:11;63.63;;;29.50;;
17595;SDS011;8916;47.086;15.920;2023-03-05T07:21:40;60.95;;;28.10;;
17595;SDS011;8916;47.086;15.920;2023-03-05T07:24:11;60.63;;;27.70;;
17595;SDS011;8916;47.086;15.920;2023-03-05T07:26:40;59.20;;;25.38;;
17595;SDS011;8916;47.086;15.920;2023-03-05T07:29:10;51.97;;;24.52;;
17595;SDS011;8916;47.086;15.920;2023-03-05T07:31:39;55.35;;;26.30;;
17595;SDS011;8916;47.086;15.920;2023-03-05T07:34:08;60.60;;;24.58;;
17595;SDS011;8916;47.086;15.920;2023-03-05T07:36:37;59.55;;;24.48;;
17595;SDS011;8916;47.086;15.920;2023-03-05T07:39:09;50.75;;;23.73;;
17595;SDS011;8916;47.086;15.920;2023-03-05T07:41:40;51.03;;;24.02;;
17595;SDS011;8916;47.086;15.920;2023-03-05T07:44:09;48.45;;;22.27;;
17595;SDS011;8916;47.086;15.920;2023-03-05T07:46:38;54.55;;;24.27;;
17595;SDS011;8916;47.086;15.920;2023-03-05T07:49:08;45.95;;;22.52;;
17595;SDS011;8916;47.086;15.920;2023-03-05T07:51:40;50.40;;;23.65;;
17595;SDS011;8916;47.086;15.920;2023-03-05T07:54:10;46.17;;;22.40;;
17595;SDS011;8916;47.086;15.920;2023-03-05T07:56:39;44.45;;;21.77;;
17595;SDS011;8916;47.086;15.920;2023-03-05T07:59:11;46.25;;;22.88;;
17595;SDS011;8916;47.086;15.920;2023-03-05T08:01:42;42.60;;;22.35;;
17595;SDS011;8916;47.086;15.920;2023-03-05T08:04:12;50.22;;;24.38;;
17595;SDS011;8916;47.086;15.920;2023-03-05T08:06:41;49.30;;;23.10;;
17595;SDS011;8916;47.086;15.920;2023-03-05T08:09:12;50.55;;;23.35;;
17595;SDS011;8916;47.086;15.920;2023-03-05T08:11:41;51.95;;;24.25;;
17595;SDS011;8916;47.086;15.920;2023-03-05T08:14:10;48.00;;;23.23;;
17595;SDS011;8916;47.086;15.920;2023-03-05T08:16:40;46.35;;;23.65;;
17595;SDS011;8916;47.086;15.920;2023-03-05T08:19:14;42.08;;;22.05;;
17595;SDS011;8916;47.086;15.920;2023-03-05T08:21:43;45.38;;;22.55;;
17595;SDS011;8916;47.086;15.920;2023-03-05T08:24:17;43.80;;;22.08;;
17595;SDS011;8916;47.086;15.920;2023-03-05T08:26:46;41.20;;;21.85;;
17595;SDS011;8916;47.086;15.920;2023-03-05T08:29:15;47.40;;;22.05;;
17595;SDS011;8916;47.086;15.920;2023-03-05T08:31:44;36.55;;;19.92;;
17595;SDS011;8916;47.086;15.920;2023-03-05T08:34:14;37.03;;;20.58;;
17595;SDS011;8916;47.086;15.920;2023-03-05T08:36:43;38.03;;;19.85;;
17595;SDS011;8916;47.086;15.920;2023-03-05T08:39:17;38.92;;;19.35;;
17595;SDS011;8916;47.086;15.920;2023-03-05T08:41:46;38.17;;;19.45;;
17595;SDS011;8916;47.086;15.920;2023-03-05T08:44:15;43.55;;;20.33;;
17595;SDS011;8916;47.086;15.920;2023-03-05T08:46:44;41.58;;;19.98;;
17595;SDS011;8916;47.086;15.920;2023-03-05T08:49:13;43.47;;;18.88;;
17595;SDS011;8916;47.086;15.920;2023-03-05T08:51:42;43.95;;;20.63;;
17595;SDS011;8916;47.086;15.920;2023-03-05T08:54:11;42.33;;;20.17;;
17595;SDS011;8916;47.086;15.920;2023-03-05T08:56:42;42.42;;;20.63;;
17595;SDS011;8916;47.086;15.920;2023-03-05T08:59:13;36.72;;;20.55;;
17595;SDS011;8916;47.086;15.920;2023-03-05T09:01:42;51.03;;;20.85;;
17595;SDS011;8916;47.086;15.920;2023-03-05T09:04:11;36.10;;;19.55;;
17595;SDS011;8916;47.086;15.920;2023-03-05T09:06:41;37.05;;;20.85;;
17595;SDS011;8916;47.086;15.920;2023-03-05T09:09:10;37.58;;;19.08;;
17595;SDS011;8916;47.086;15.920;2023-03-05T09:11:41;36.08;;;19.90;;
17595;SDS011;8916;47.086;15.920;2023-03-05T09:14:10;40.67;;;19.48;;
17595;SDS011;8916;47.086;15.920;2023-03-05T09:16:39;41.25;;;20.05;;
17595;SDS011;8916;47.086;15.920;2023-03-05T09:19:08;38.05;;;20.15;;
17595;SDS011;8916;47.086;15.920;2023-03-05T09:21:38;39.35;;;19.90;;
17595;SDS011;8916;47.086;15.920;2023-03-05T09:24:08;39.75;;;19.38;;
17595;SDS011;8916;47.086;15.920;2023-03-05T09:26:38;40.00;;;19.23;;
17595;SDS011;8916;47.086;15.920;2023-03-05T09:29:10;37.85;;;19.17;;
17595;SDS011;8916;47.086;15.920;2023-03-05T09:31:39;38.75;;;20.30;;
17595;SDS011;8916;47.086;15.920;2023-03-05T09:34:10;37.47;;;18.77;;
17595;SDS011;8916;47.086;15.920;2023-03-05T09:36:40;37.10;;;19.95;;
17595;SDS011;8916;47.086;15.920;2023-03-05T09:39:09;37.30;;;19.20;;
17595;SDS011;8916;47.086;15.920;2023-03-05T09:41:46;33.78;;;18.52;;
17595;SDS011;8916;47.086;15.920;2023-03-05T09:44:54;34.38;;;18.20;;
17595;SDS011;8916;47.086;15.920;2023-03-05T09:47:38;36.22;;;19.25;;
17595;SDS011;8916;47.086;15.920;2023-03-05T09:50:26;38.85;;;18.13;;
17595;SDS011;8916;47.086;15.920;2023-03-05T09:53:10;40.55;;;19.17;;
17595;SDS011;8916;47.086;15.920;2023-03-05T09:55:56;40.60;;;20.30;;
17595;SDS011;8916;47.086;15.920;2023-03-05T09:58:31;37.80;;;19.73;;
17595;SDS011;8916;47.086;15.920;2023-03-05T10:01:07;38.47;;;18.58;;
17595;SDS011;8916;47.086;15.920;2023-03-05T10:03:43;43.88;;;18.10;;
17595;SDS011;8916;47.086;15.920;2023-03-05T10:06:24;36.60;;;19.55;;
17595;SDS011;8916;47.086;15.920;2023-03-05T10:08:56;35.90;;;18.92;;
17595;SDS011;8916;47.086;15.920;2023-03-05T10:11:39;34.92;;;18.38;;
17595;SDS011;8916;47.086;15.920;2023-03-05T10:14:15;35.67;;;18.88;;
17595;SDS011;8916;47.086;15.920;2023-03-05T10:17:04;30.52;;;17.75;;
17595;SDS011;8916;47.086;15.920;2023-03-05T10:22:57;33.42;;;18.65;;
17595;SDS011;8916;47.086;15.920;2023-03-05T10:25:51;34.30;;;17.80;;
17595;SDS011;8916;47.086;15.920;2023-03-05T10:28:28;34.10;;;18.80;;
17595;SDS011;8916;47.086;15.920;2023-03-05T10:31:13;33.30;;;18.95;;
17595;SDS011;8916;47.086;15.920;2023-03-05T10:34:01;30.98;;;18.20;;
17595;SDS011;8916;47.086;15.920;2023-03-05T10:36:52;35.38;;;17.60;;
17595;SDS011;8916;47.086;15.920;2023-03-05T10:42:43;34.03;;;18.40;;
17595;SDS011;8916;47.086;15.920;2023-03-05T10:45:19;35.20;;;18.10;;
17595;SDS011;8916;47.086;15.920;2023-03-05T10:47:54;33.55;;;18.35;;
17595;SDS011;8916;47.086;15.920;2023-03-05T10:50:32;32.72;;;18.38;;
17595;SDS011;8916;47.086;15.920;2023-03-05T10:53:06;35.45;;;18.10;;
17595;SDS011;8916;47.086;15.920;2023-03-05T10:55:47;34.78;;;18.20;;
17595;SDS011;8916;47.086;15.920;2023-03-05T10:58:22;33.35;;;18.08;;
17595;SDS011;8916;47.086;15.920;2023-03-05T11:00:56;32.42;;;17.92;;
17595;SDS011;8916;47.086;15.920;2023-03-05T11:03:44;36.15;;;17.55;;
17595;SDS011;8916;47.086;15.920;2023-03-05T11:06:32;34.55;;;17.15;;
17595;SDS011;8916;47.086;15.920;2023-03-05T11:09:14;38.20;;;17.88;;
17595;SDS011;8916;47.086;15.920;2023-03-05T11:12:05;37.50;;;17.48;;
17595;SDS011;8916;47.086;15.920;2023-03-05T11:14:42;34.42;;;17.98;;
17595;SDS011;8916;47.086;15.920;2023-03-05T11:17:28;34.17;;;17.38;;
17595;SDS011;8916;47.086;15.920;2023-03-05T11:23:03;33.50;;;17.58;;
17595;SDS011;8916;47.086;15.920;2023-03-05T11:28:33;30.08;;;17.20;;
17595;SDS011;8916;47.086;15.920;2023-03-05T11:31:05;36.83;;;17.58;;
17595;SDS011;8916;47.086;15.920;2023-03-05T11:33:55;30.75;;;16.55;;
17595;SDS011;8916;47.086;15.920;2023-03-05T11:36:29;29.50;;;17.10;;
17595;SDS011;8916;47.086;15.920;2023-03-05T11:39:09;30.80;;;17.40;;
17595;SDS011;8916;47.086;15.920;2023-03-05T11:41:44;32.35;;;16.92;;
17595;SDS011;8916;47.086;15.920;2023-03-05T11:44:19;28.70;;;16.23;;
17595;SDS011;8916;47.086;15.920;2023-03-05T11:46:53;30.83;;;17.52;;
17595;SDS011;8916;47.086;15.920;2023-03-05T11:49:27;35.25;;;17.20;;
17595;SDS011;8916;47.086;15.920;2023-03-05T11:52:03;30.10;;;15.00;;
17595;SDS011;8916;47.086;15.920;2023-03-05T11:54:41;31.00;;;15.95;;
17595;SDS011;8916;47.086;15.920;2023-03-05T11:57:23;26.85;;;14.65;;
17595;SDS011;8916;47.086;15.920;2023-03-05T11:59:54;27.60;;;14.98;;
17595;SDS011;8916;47.086;15.920;2023-03-05T12:02:34;27.70;;;14.27;;
17595;SDS011;8916;47.086;15.920;2023-03-05T12:05:05;26.90;;;13.65;;
17595;SDS011;8916;47.086;15.920;2023-03-05T12:07:36;27.10;;;13.65;;
17595;SDS011;8916;47.086;15.920;2023-03-05T12:10:15;25.85;;;13.32;;
17595;SDS011;8916;47.086;15.920;2023-03-05T12:12:51;32.33;;;16.52;;
17595;SDS011;8916;47.086;15.920;2023-03-05T12:15:30;28.52;;;16.67;;
17595;SDS011;8916;47.086;15.920;2023-03-05T12:18:15;30.35;;;16.75;;
17595;SDS011;8916;47.086;15.920;2023-03-05T12:20:56;35.30;;;15.35;;
17595;SDS011;8916;47.086;15.920;2023-03-05T12:23:43;28.42;;;15.10;;
17595;SDS011;8916;47.086;15.920;2023-03-05T12:26:17;29.90;;;15.57;;
17595;SDS011;8916;47.086;15.920;2023-03-05T12:29:11;29.02;;;15.77;;
17595;SDS011;8916;47.086;15.920;2023-03-05T12:31:58;32.10;;;15.85;;
17595;SDS011;8916;47.086;15.920;2023-03-05T12:34:35;26.23;;;15.88;;
17595;SDS011;8916;47.086;15.920;2023-03-05T12:40:50;28.35;;;15.75;;
17595;SDS011;8916;47.086;15.920;2023-03-05T12:43:30;31.52;;;16.52;;
17595;SDS011;8916;47.086;15.920;2023-03-05T12:48:55;26.65;;;15.57;;
17595;SDS011;8916;47.086;15.920;2023-03-05T12:54:20;31.13;;;15.93;;
17595;SDS011;8916;47.086;15.920;2023-03-05T12:57:01;29.17;;;14.65;;
17595;SDS011;8916;47.086;15.920;2023-03-05T12:59:37;31.38;;;15.50;;
17595;SDS011;8916;47.086;15.920;2023-03-05T13:02:22;30.52;;;17.33;;
17595;SDS011;8916;47.086;15.920;2023-03-05T13:04:59;28.25;;;15.38;;
17595;SDS011;8916;47.086;15.920;2023-03-05T13:07:34;24.90;;;13.88;;
17595;SDS011;8916;47.086;15.920;2023-03-05T13:10:04;27.15;;;14.68;;
17595;SDS011;8916;47.086;15.920;2023-03-05T13:12:34;22.60;;;13.52;;
17595;SDS011;8916;47.086;15.920;2023-03-05T13:15:12;28.55;;;15.43;;
17595;SDS011;8916;47.086;15.920;2023-03-05T13:17:50;28.52;;;15.90;;
17595;SDS011;8916;47.086;15.920;2023-03-05T13:20:25;28.38;;;15.75;;
17595;SDS011;8916;47.086;15.920;2023-03-05T13:25:57;28.30;;;15.47;;
17595;SDS011;8916;47.086;15.920;2023-03-05T13:28:30;28.40;;;15.07;;
17595;SDS011;8916;47.086;15.920;2023-03-05T13:31:01;26.38;;;14.57;;
17595;SDS011;8916;47.086;15.920;2023-03-05T13:33:40;27.90;;;13.77;;
17595;SDS011;8916;47.086;15.920;2023-03-05T13:36:20;25.35;;;14.75;;
17595;SDS011;8916;47.086;15.920;2023-03-05T13:38:52;26.67;;;15.00;;
17595;SDS011;8916;47.086;15.920;2023-03-05T13:41:22;24.85;;;15.32;;
17595;SDS011;8916;47.086;15.920;2023-03-05T13:43:54;26.42;;;14.45;;
17595;SDS011;8916;47.086;15.920;2023-03-05T13:46:29;25.45;;;14.25;;
17595;SDS011;8916;47.086;15.920;2023-03-05T13:49:18;32.80;;;15.40;;
17595;SDS011;8916;47.086;15.920;2023-03-05T13:51:51;29.27;;;15.10;;
17595;SDS011;8916;47.086;15.920;2023-03-05T13:54:22;23.75;;;14.50;;
17595;SDS011;8916;47.086;15.920;2023-03-05T13:56:53;27.27;;;17.40;;
17595;SDS011;8916;47.086;15.920;2023-03-05T13:59:25;34.38;;;18.35;;
17595;SDS011;8916;47.086;15.920;2023-03-05T14:02:00;26.13;;;16.80;;
17595;SDS011;8916;47.086;15.920;2023-03-05T14:04:43;29.58;;;17.98;;
17595;SDS011;8916;47.086;15.920;2023-03-05T14:07:21;31.60;;;17.70;;
17595;SDS011;8916;47.086;15.920;2023-03-05T14:09:57;29.98;;;17.50;;
17595;SDS011;8916;47.086;15.920;2023-03-05T14:12:27;30.27;;;17.08;;
17595;SDS011;8916;47.086;15.920;2023-03-05T14:15:03;28.87;;;17.03;;
17595;SDS011;8916;47.086;15.920;2023-03-05T14:17:47;32.30;;;18.52;;
17595;SDS011;8916;47.086;15.920;2023-03-05T14:20:22;31.63;;;18.13;;
17595;SDS011;8916;47.086;15.920;2023-03-05T14:22:56;31.98;;;17.80;;
17595;SDS011;8916;47.086;15.920;2023-03-05T14:25:29;29.23;;;16.95;;
17595;SDS011;8916;47.086;15.920;2023-03-05T14:28:07;31.92;;;17.70;;
17595;SDS011;8916;47.086;15.920;2023-03-05T14:33:25;29.67;;;16.95;;
17595;SDS011;8916;47.086;15.920;2023-03-05T14:35:58;31.85;;;18.00;;
17595;SDS011;8916;47.086;15.920;2023-03-05T14:38:33;30.90;;;17.05;;
17595;SDS011;8916;47.086;15.920;2023-03-05T14:41:31;35.38;;;18.05;;
17595;SDS011;8916;47.086;15.920;2023-03-05T14:44:08;36.00;;;18.00;;
17595;SDS011;8916;47.086;15.920;2023-03-05T14:46:41;31.30;;;18.10;;
17595;SDS011;8916;47.086;15.920;2023-03-05T14:49:15;31.30;;;17.40;;
17595;SDS011;8916;47.086;15.920;2023-03-05T14:51:46;30.90;;;17.80;;
17595;SDS011;8916;47.086;15.920;2023-03-05T14:54:16;28.70;;;16.92;;
17595;SDS011;8916;47.086;15.920;2023-03-05T14:56:50;35.13;;;17.65;;
17595;SDS011;8916;47.086;15.920;2023-03-05T14:59:21;29.20;;;16.17;;
17595;SDS011;8916;47.086;15.920;2023-03-05T15:01:51;29.42;;;16.98;;
17595;SDS011;8916;47.086;15.920;2023-03-05T15:04:20;31.80;;;16.88;;
17595;SDS011;8916;47.086;15.920;2023-03-05T15:06:50;29.73;;;17.08;;
17595;SDS011;8916;47.086;15.920;2023-03-05T15:09:20;27.58;;;16.25;;
17595;SDS011;8916;47.086;15.920;2023-03-05T15:11:50;27.15;;;16.13;;
17595;SDS011;8916;47.086;15.920;2023-03-05T15:14:19;28.67;;;16.85;;
17595;SDS011;8916;47.086;15.920;2023-03-05T15:16:49;39.33;;;17.33;;
17595;SDS011;8916;47.086;15.920;2023-03-05T15:19:20;29.52;;;15.93;;